CEB212 RPVP-RPLL
Flight info
| Callsign | CEB212 |
|---|---|
| Flight time | 1h 0m |
| Altitude | 26000 |
| Route | DABOY1E DABOY W281 LEGED N884 LUBAN LUBAN3R |
| Aircraft | A20N/M-SDE2E3FGHIRWXY/LB1 |
Departure
| Time | 2026-05-08 12:26 |
|---|---|
| Airport | Puerto Princesa International Airport / PAF Antonio Bautista Air Base (RPVP) |
Arrival
| Time | 2026-05-08 13:26 |
|---|---|
| Airport | Ninoy Aquino International Airport (RPLL) |
| Time | Latitude | Longitude | Altitude | Speed | Heading |
|---|---|---|---|---|---|
| 2026-05-08 12:14 | 9.74507 | 118.75059 | 57 ft | 0 kts | 2° |
| 2026-05-08 12:18 | 9.74506 | 118.75059 | 89 ft | 2 kts | 2° |
| 2026-05-08 12:19 | 9.74489 | 118.75058 | 88 ft | 2 kts | 0° |
| 2026-05-08 12:19 | 9.74473 | 118.75059 | 87 ft | 2 kts | 357° |
| 2026-05-08 12:19 | 9.74457 | 118.75060 | 90 ft | 2 kts | 353° |
| 2026-05-08 12:19 | 9.74441 | 118.75063 | 87 ft | 2 kts | 345° |
| 2026-05-08 12:20 | 9.74425 | 118.75069 | 89 ft | 2 kts | 325° |
| 2026-05-08 12:20 | 9.74415 | 118.75082 | 87 ft | 2 kts | 281° |
| 2026-05-08 12:20 | 9.74415 | 118.75089 | 89 ft | 0 kts | 270° |
| 2026-05-08 12:21 | 9.74415 | 118.75087 | 89 ft | 1 kts | 270° |
| 2026-05-08 12:21 | 9.74415 | 118.75072 | 88 ft | 3 kts | 269° |
| 2026-05-08 12:22 | 9.74415 | 118.75070 | 89 ft | 1 kts | 269° |
| 2026-05-08 12:22 | 9.74414 | 118.75062 | 88 ft | 1 kts | 269° |
| 2026-05-08 12:22 | 9.74415 | 118.75055 | 89 ft | 1 kts | 274° |
| 2026-05-08 12:22 | 9.74416 | 118.75048 | 88 ft | 1 kts | 274° |
| 2026-05-08 12:23 | 9.74416 | 118.75040 | 86 ft | 1 kts | 274° |
| 2026-05-08 12:23 | 9.74418 | 118.75012 | 85 ft | 10 kts | 273° |
| 2026-05-08 12:23 | 9.74422 | 118.74901 | 85 ft | 21 kts | 272° |
| 2026-05-08 12:23 | 9.74427 | 118.74758 | 84 ft | 16 kts | 271° |
| 2026-05-08 12:24 | 9.74361 | 118.74704 | 85 ft | 13 kts | 182° |
| 2026-05-08 12:24 | 9.74276 | 118.74704 | 85 ft | 5 kts | 156° |
| 2026-05-08 12:24 | 9.74263 | 118.74734 | 84 ft | 0 kts | 91° |
| 2026-05-08 12:25 | 9.74262 | 118.74815 | 84 ft | 41 kts | 91° |
| 2026-05-08 12:25 | 9.74226 | 118.75608 | 86 ft | 124 kts | 92° |
| 2026-05-08 12:25 | 9.74197 | 118.76269 | 86 ft | 157 kts | 93° |
| 2026-05-08 12:26 | 9.74137 | 118.77737 | 640 ft | 165 kts | 95° |
| 2026-05-08 12:26 | 9.74066 | 118.78910 | 1181 ft | 159 kts | 93° |
| 2026-05-08 12:26 | 9.74313 | 118.79994 | 1682 ft | 173 kts | 54° |
| 2026-05-08 12:26 | 9.75003 | 118.80511 | 1828 ft | 199 kts | 23° |
| 2026-05-08 12:27 | 9.76479 | 118.80841 | 2162 ft | 231 kts | 11° |
| 2026-05-08 12:27 | 9.78099 | 118.81064 | 2862 ft | 238 kts | 12° |
| 2026-05-08 12:27 | 9.79754 | 118.81326 | 3667 ft | 243 kts | 14° |
| 2026-05-08 12:27 | 9.81426 | 118.81632 | 4482 ft | 246 kts | 15° |
| 2026-05-08 12:28 | 9.83111 | 118.81968 | 5257 ft | 249 kts | 15° |
| 2026-05-08 12:28 | 9.84821 | 118.82324 | 6015 ft | 252 kts | 16° |
| 2026-05-08 12:28 | 9.86537 | 118.82691 | 6747 ft | 254 kts | 16° |
| 2026-05-08 12:28 | 9.88276 | 118.83066 | 7471 ft | 256 kts | 16° |
| 2026-05-08 12:29 | 9.89888 | 118.83252 | 8124 ft | 263 kts | 6° |
| 2026-05-08 12:29 | 9.91839 | 118.83247 | 8600 ft | 279 kts | 2° |
| 2026-05-08 12:29 | 9.93801 | 118.83181 | 9212 ft | 286 kts | 2° |
| 2026-05-08 12:29 | 9.95814 | 118.83107 | 9918 ft | 290 kts | 2° |
| 2026-05-08 12:30 | 9.97858 | 118.83038 | 10371 ft | 302 kts | 2° |
| 2026-05-08 12:30 | 10.00021 | 118.82971 | 10614 ft | 321 kts | 2° |
| 2026-05-08 12:30 | 10.02317 | 118.82903 | 10852 ft | 337 kts | 1° |
| 2026-05-08 12:30 | 10.04691 | 118.82828 | 11298 ft | 346 kts | 1° |
| 2026-05-08 12:31 | 10.07117 | 118.82752 | 11856 ft | 350 kts | 1° |
| 2026-05-08 12:31 | 10.09557 | 118.82679 | 12425 ft | 353 kts | 1° |
| 2026-05-08 12:31 | 10.12030 | 118.82604 | 13029 ft | 356 kts | 1° |
| 2026-05-08 12:31 | 10.14514 | 118.82532 | 13645 ft | 359 kts | 1° |
| 2026-05-08 12:32 | 10.17021 | 118.82456 | 14189 ft | 362 kts | 1° |
| 2026-05-08 12:32 | 10.19548 | 118.82379 | 14731 ft | 366 kts | 1° |
| 2026-05-08 12:32 | 10.22107 | 118.82302 | 15257 ft | 369 kts | 1° |
| 2026-05-08 12:32 | 10.24684 | 118.82224 | 15797 ft | 372 kts | 1° |
| 2026-05-08 12:33 | 10.27282 | 118.82147 | 16330 ft | 375 kts | 1° |
| 2026-05-08 12:33 | 10.29904 | 118.82069 | 16862 ft | 378 kts | 1° |
| 2026-05-08 12:33 | 10.32546 | 118.81990 | 17375 ft | 381 kts | 2° |
| 2026-05-08 12:33 | 10.35215 | 118.81910 | 17872 ft | 385 kts | 2° |
| 2026-05-08 12:34 | 10.37895 | 118.81831 | 18332 ft | 388 kts | 2° |
| 2026-05-08 12:34 | 10.40594 | 118.81778 | 18730 ft | 390 kts | 4° |
| 2026-05-08 12:34 | 10.43319 | 118.81852 | 19119 ft | 392 kts | 6° |
| 2026-05-08 12:34 | 10.46046 | 118.82011 | 19502 ft | 395 kts | 7° |
| 2026-05-08 12:35 | 10.48800 | 118.82213 | 19875 ft | 397 kts | 7° |
| 2026-05-08 12:35 | 10.51562 | 118.82430 | 20249 ft | 400 kts | 7° |
| 2026-05-08 12:35 | 10.54350 | 118.82648 | 20624 ft | 403 kts | 7° |
| 2026-05-08 12:35 | 10.57155 | 118.82862 | 21013 ft | 406 kts | 6° |
| 2026-05-08 12:36 | 10.59978 | 118.83070 | 21414 ft | 408 kts | 6° |
| 2026-05-08 12:36 | 10.62814 | 118.83274 | 21828 ft | 411 kts | 6° |
| 2026-05-08 12:36 | 10.65684 | 118.83476 | 22240 ft | 414 kts | 6° |
| 2026-05-08 12:36 | 10.68564 | 118.83678 | 22653 ft | 417 kts | 6° |
| 2026-05-08 12:37 | 10.71472 | 118.83881 | 23056 ft | 420 kts | 6° |
| 2026-05-08 12:37 | 10.74392 | 118.84085 | 23456 ft | 423 kts | 6° |
| 2026-05-08 12:37 | 10.77335 | 118.84291 | 23804 ft | 426 kts | 6° |
| 2026-05-08 12:37 | 10.80303 | 118.84499 | 24176 ft | 428 kts | 5° |
| 2026-05-08 12:38 | 10.83718 | 118.84738 | 24619 ft | 430 kts | 5° |
| 2026-05-08 12:38 | 10.86709 | 118.84948 | 25002 ft | 432 kts | 5° |
| 2026-05-08 12:38 | 10.89714 | 118.85159 | 25381 ft | 434 kts | 5° |
| 2026-05-08 12:38 | 10.92730 | 118.85371 | 25717 ft | 436 kts | 5° |
| 2026-05-08 12:39 | 10.95760 | 118.85583 | 25849 ft | 437 kts | 5° |
| 2026-05-08 12:39 | 10.98802 | 118.85797 | 25861 ft | 437 kts | 5° |
| 2026-05-08 12:39 | 11.01836 | 118.86010 | 25862 ft | 438 kts | 5° |
| 2026-05-08 12:39 | 11.04876 | 118.86224 | 25861 ft | 438 kts | 5° |
| 2026-05-08 12:40 | 11.07920 | 118.86438 | 25865 ft | 438 kts | 5° |
| 2026-05-08 12:40 | 11.10954 | 118.86652 | 25867 ft | 438 kts | 5° |
| 2026-05-08 12:40 | 11.13998 | 118.86866 | 25867 ft | 438 kts | 5° |
| 2026-05-08 12:40 | 11.17037 | 118.87080 | 25868 ft | 438 kts | 5° |
| 2026-05-08 12:41 | 11.20079 | 118.87294 | 25866 ft | 438 kts | 5° |
| 2026-05-08 12:41 | 11.23121 | 118.87508 | 25875 ft | 438 kts | 5° |
| 2026-05-08 12:41 | 11.26160 | 118.87721 | 25870 ft | 436 kts | 5° |
| 2026-05-08 12:41 | 11.29184 | 118.87934 | 25870 ft | 435 kts | 5° |
| 2026-05-08 12:42 | 11.32206 | 118.88147 | 25871 ft | 435 kts | 5° |
| 2026-05-08 12:42 | 11.35224 | 118.88360 | 25871 ft | 435 kts | 5° |
| 2026-05-08 12:42 | 11.38242 | 118.88572 | 25870 ft | 435 kts | 6° |
| 2026-05-08 12:42 | 11.41269 | 118.88786 | 25870 ft | 435 kts | 5° |
| 2026-05-08 12:43 | 11.44283 | 118.88999 | 25870 ft | 435 kts | 5° |
| 2026-05-08 12:43 | 11.47299 | 118.89212 | 25870 ft | 435 kts | 5° |
| 2026-05-08 12:43 | 11.50312 | 118.89424 | 25870 ft | 435 kts | 5° |
| 2026-05-08 12:43 | 11.53340 | 118.89638 | 25870 ft | 435 kts | 5° |
| 2026-05-08 12:44 | 11.56359 | 118.89851 | 25869 ft | 435 kts | 5° |
| 2026-05-08 12:44 | 11.59383 | 118.90065 | 25875 ft | 435 kts | 5° |
| 2026-05-08 12:44 | 11.62399 | 118.90278 | 25875 ft | 435 kts | 5° |
| 2026-05-08 12:44 | 11.65412 | 118.90490 | 25875 ft | 435 kts | 5° |
| 2026-05-08 12:45 | 11.68393 | 118.90701 | 25874 ft | 435 kts | 5° |
| 2026-05-08 12:45 | 11.71414 | 118.90914 | 25873 ft | 435 kts | 5° |
| 2026-05-08 12:45 | 11.74425 | 118.91127 | 25873 ft | 435 kts | 5° |
| 2026-05-08 12:45 | 11.77451 | 118.91341 | 25873 ft | 435 kts | 5° |
| 2026-05-08 12:46 | 11.80468 | 118.91554 | 25872 ft | 435 kts | 5° |
| 2026-05-08 12:46 | 11.83492 | 118.91768 | 25873 ft | 435 kts | 5° |
| 2026-05-08 12:46 | 11.86506 | 118.91981 | 25876 ft | 435 kts | 5° |
| 2026-05-08 12:46 | 11.89527 | 118.92195 | 25875 ft | 435 kts | 5° |
| 2026-05-08 12:47 | 11.92544 | 118.92409 | 25878 ft | 434 kts | 5° |
| 2026-05-08 12:47 | 11.95554 | 118.92622 | 25878 ft | 434 kts | 5° |
| 2026-05-08 12:47 | 11.98567 | 118.92835 | 25878 ft | 434 kts | 5° |
| 2026-05-08 12:47 | 12.01578 | 118.93048 | 25878 ft | 434 kts | 5° |
| 2026-05-08 12:48 | 12.04593 | 118.93262 | 25876 ft | 434 kts | 5° |
| 2026-05-08 12:48 | 12.07595 | 118.93475 | 25876 ft | 434 kts | 5° |
| 2026-05-08 12:48 | 12.10618 | 118.93689 | 25875 ft | 434 kts | 5° |
| 2026-05-08 12:48 | 12.13637 | 118.93903 | 25875 ft | 434 kts | 5° |
| 2026-05-08 12:49 | 12.16643 | 118.94116 | 25875 ft | 434 kts | 5° |
| 2026-05-08 12:49 | 12.19655 | 118.94330 | 25874 ft | 434 kts | 5° |
| 2026-05-08 12:49 | 12.22671 | 118.94544 | 25875 ft | 434 kts | 5° |
| 2026-05-08 12:49 | 12.25683 | 118.94757 | 25876 ft | 433 kts | 5° |
| 2026-05-08 12:50 | 12.28689 | 118.94971 | 25874 ft | 433 kts | 5° |
| 2026-05-08 12:50 | 12.31692 | 118.95184 | 25876 ft | 433 kts | 5° |
| 2026-05-08 12:50 | 12.34703 | 118.95398 | 25875 ft | 433 kts | 5° |
| 2026-05-08 12:50 | 12.36695 | 118.95539 | 25875 ft | 433 kts | 5° |
| 2026-05-08 12:51 | 12.39705 | 118.95753 | 25888 ft | 433 kts | 5° |
| 2026-05-08 12:51 | 12.46746 | 118.96253 | 25875 ft | 434 kts | 5° |
| 2026-05-08 12:51 | 12.48738 | 118.96395 | 25875 ft | 434 kts | 5° |
| 2026-05-08 12:52 | 12.51749 | 118.96609 | 25876 ft | 434 kts | 5° |
| 2026-05-08 12:52 | 12.57769 | 118.97037 | 25876 ft | 433 kts | 5° |
| 2026-05-08 12:52 | 12.60770 | 118.97251 | 25876 ft | 433 kts | 5° |
| 2026-05-08 12:53 | 12.63780 | 118.97465 | 25874 ft | 433 kts | 5° |
| 2026-05-08 12:53 | 12.66786 | 118.97679 | 25875 ft | 433 kts | 5° |
| 2026-05-08 12:53 | 12.69793 | 118.97893 | 25875 ft | 433 kts | 5° |
| 2026-05-08 12:53 | 12.72798 | 118.98107 | 25875 ft | 433 kts | 5° |
| 2026-05-08 12:54 | 12.75805 | 118.98321 | 25882 ft | 433 kts | 5° |
| 2026-05-08 12:54 | 12.78807 | 118.98535 | 25880 ft | 433 kts | 5° |
| 2026-05-08 12:54 | 12.81815 | 118.98749 | 25881 ft | 433 kts | 5° |
| 2026-05-08 12:54 | 12.84825 | 118.98964 | 25881 ft | 433 kts | 5° |
| 2026-05-08 12:55 | 12.87831 | 118.99178 | 25880 ft | 433 kts | 5° |
| 2026-05-08 12:55 | 12.90837 | 118.99393 | 25881 ft | 433 kts | 5° |
| 2026-05-08 12:55 | 12.93837 | 118.99607 | 25881 ft | 433 kts | 5° |
| 2026-05-08 12:55 | 12.96841 | 118.99826 | 25881 ft | 433 kts | 6° |
| 2026-05-08 12:56 | 12.99779 | 119.00432 | 25880 ft | 430 kts | 20° |
| 2026-05-08 12:56 | 13.02454 | 119.01757 | 25881 ft | 428 kts | 35° |
| 2026-05-08 12:56 | 13.04664 | 119.03784 | 25884 ft | 427 kts | 48° |
| 2026-05-08 12:56 | 13.06561 | 119.06122 | 25880 ft | 427 kts | 52° |
| 2026-05-08 12:57 | 13.08392 | 119.08523 | 25862 ft | 427 kts | 52° |
| 2026-05-08 12:57 | 13.10196 | 119.10913 | 25649 ft | 419 kts | 52° |
| 2026-05-08 12:57 | 13.11967 | 119.13259 | 25426 ft | 414 kts | 52° |
| 2026-05-08 12:57 | 13.13734 | 119.15596 | 25196 ft | 413 kts | 52° |
| 2026-05-08 12:58 | 13.15491 | 119.17920 | 24970 ft | 413 kts | 52° |
| 2026-05-08 12:58 | 13.17251 | 119.20244 | 24743 ft | 412 kts | 52° |
| 2026-05-08 12:58 | 13.19006 | 119.22563 | 24521 ft | 410 kts | 52° |
| 2026-05-08 12:58 | 13.20752 | 119.24869 | 24300 ft | 409 kts | 52° |
| 2026-05-08 12:59 | 13.22491 | 119.27168 | 24075 ft | 407 kts | 52° |
| 2026-05-08 12:59 | 13.24208 | 119.29435 | 23867 ft | 406 kts | 52° |
| 2026-05-08 12:59 | 13.25939 | 119.31723 | 23650 ft | 405 kts | 52° |
| 2026-05-08 12:59 | 13.27663 | 119.34003 | 23430 ft | 404 kts | 53° |
| 2026-05-08 13:00 | 13.29381 | 119.36274 | 23171 ft | 402 kts | 53° |
| 2026-05-08 13:00 | 13.31112 | 119.38564 | 22913 ft | 400 kts | 53° |
| 2026-05-08 13:00 | 13.32797 | 119.40793 | 22661 ft | 399 kts | 53° |
| 2026-05-08 13:00 | 13.34489 | 119.43033 | 22408 ft | 397 kts | 53° |
| 2026-05-08 13:01 | 13.36180 | 119.45271 | 22160 ft | 395 kts | 53° |
| 2026-05-08 13:01 | 13.37860 | 119.47495 | 21925 ft | 394 kts | 53° |
| 2026-05-08 13:01 | 13.39536 | 119.49716 | 21672 ft | 392 kts | 53° |
| 2026-05-08 13:01 | 13.41207 | 119.51929 | 21426 ft | 391 kts | 53° |
| 2026-05-08 13:02 | 13.42867 | 119.54128 | 21183 ft | 389 kts | 53° |
| 2026-05-08 13:02 | 13.44521 | 119.56321 | 20942 ft | 388 kts | 53° |
| 2026-05-08 13:02 | 13.46175 | 119.58513 | 20704 ft | 386 kts | 53° |
| 2026-05-08 13:02 | 13.47814 | 119.60687 | 20468 ft | 385 kts | 53° |
| 2026-05-08 13:03 | 13.49452 | 119.62859 | 20237 ft | 383 kts | 53° |
| 2026-05-08 13:03 | 13.51080 | 119.65019 | 20005 ft | 382 kts | 53° |
| 2026-05-08 13:03 | 13.52700 | 119.67170 | 19774 ft | 380 kts | 53° |
| 2026-05-08 13:03 | 13.54322 | 119.69322 | 19544 ft | 379 kts | 53° |
| 2026-05-08 13:04 | 13.55927 | 119.71454 | 19318 ft | 378 kts | 53° |
| 2026-05-08 13:04 | 13.57536 | 119.73590 | 19086 ft | 376 kts | 53° |
| 2026-05-08 13:04 | 13.59132 | 119.75711 | 18868 ft | 375 kts | 53° |
| 2026-05-08 13:04 | 13.60725 | 119.77827 | 18650 ft | 373 kts | 53° |
| 2026-05-08 13:05 | 13.62308 | 119.79931 | 18429 ft | 372 kts | 53° |
| 2026-05-08 13:05 | 13.63893 | 119.82037 | 18206 ft | 371 kts | 53° |
| 2026-05-08 13:05 | 13.65466 | 119.84129 | 17957 ft | 369 kts | 53° |
| 2026-05-08 13:05 | 13.67036 | 119.86218 | 17704 ft | 368 kts | 53° |
| 2026-05-08 13:06 | 13.68579 | 119.88270 | 17442 ft | 367 kts | 53° |
| 2026-05-08 13:06 | 13.70159 | 119.90372 | 17182 ft | 366 kts | 53° |
| 2026-05-08 13:06 | 13.71685 | 119.92404 | 16960 ft | 364 kts | 53° |
| 2026-05-08 13:06 | 13.73249 | 119.94486 | 16708 ft | 362 kts | 53° |
| 2026-05-08 13:07 | 13.74766 | 119.96507 | 16468 ft | 361 kts | 53° |
| 2026-05-08 13:07 | 13.76298 | 119.98547 | 16240 ft | 359 kts | 53° |
| 2026-05-08 13:07 | 13.77823 | 120.00579 | 15998 ft | 358 kts | 53° |
| 2026-05-08 13:07 | 13.79336 | 120.02595 | 15903 ft | 357 kts | 53° |
| 2026-05-08 13:08 | 13.80852 | 120.04616 | 15893 ft | 356 kts | 53° |
| 2026-05-08 13:08 | 13.82366 | 120.06635 | 15892 ft | 356 kts | 53° |
| 2026-05-08 13:08 | 13.83880 | 120.08648 | 15890 ft | 356 kts | 52° |
| 2026-05-08 13:08 | 13.85601 | 120.10473 | 15891 ft | 357 kts | 38° |
| 2026-05-08 13:09 | 13.87738 | 120.11773 | 15899 ft | 358 kts | 27° |
| 2026-05-08 13:09 | 13.90014 | 120.12834 | 15797 ft | 359 kts | 25° |
| 2026-05-08 13:09 | 13.92303 | 120.13850 | 15567 ft | 358 kts | 25° |
| 2026-05-08 13:09 | 13.94590 | 120.14864 | 15328 ft | 358 kts | 25° |
| 2026-05-08 13:10 | 13.96867 | 120.15878 | 15022 ft | 355 kts | 25° |
| 2026-05-08 13:10 | 13.99131 | 120.16892 | 14907 ft | 355 kts | 25° |
| 2026-05-08 13:10 | 14.01394 | 120.17909 | 14891 ft | 355 kts | 25° |
| 2026-05-08 13:10 | 14.03650 | 120.18924 | 14892 ft | 354 kts | 25° |
| 2026-05-08 13:11 | 14.05909 | 120.19942 | 14803 ft | 353 kts | 25° |
| 2026-05-08 13:11 | 14.08152 | 120.20953 | 14329 ft | 351 kts | 25° |
| 2026-05-08 13:11 | 14.10378 | 120.21957 | 13865 ft | 348 kts | 25° |
| 2026-05-08 13:11 | 14.12588 | 120.22954 | 13380 ft | 345 kts | 25° |
| 2026-05-08 13:12 | 14.14783 | 120.23945 | 12857 ft | 342 kts | 25° |
| 2026-05-08 13:12 | 14.16922 | 120.24910 | 12375 ft | 339 kts | 25° |
| 2026-05-08 13:12 | 14.19097 | 120.25893 | 11881 ft | 336 kts | 25° |
| 2026-05-08 13:12 | 14.21208 | 120.26846 | 11400 ft | 334 kts | 25° |
| 2026-05-08 13:13 | 14.23325 | 120.27803 | 10901 ft | 331 kts | 25° |
| 2026-05-08 13:13 | 14.25435 | 120.28756 | 10416 ft | 329 kts | 25° |
| 2026-05-08 13:13 | 14.27548 | 120.29712 | 9953 ft | 326 kts | 25° |
| 2026-05-08 13:13 | 14.29575 | 120.30627 | 9677 ft | 316 kts | 25° |
| 2026-05-08 13:14 | 14.31550 | 120.31519 | 9483 ft | 303 kts | 25° |
| 2026-05-08 13:14 | 14.33437 | 120.32372 | 9303 ft | 291 kts | 25° |
| 2026-05-08 13:14 | 14.35269 | 120.33201 | 8991 ft | 285 kts | 25° |
| 2026-05-08 13:14 | 14.37080 | 120.34021 | 8606 ft | 282 kts | 26° |
| 2026-05-08 13:15 | 14.38869 | 120.34831 | 8213 ft | 280 kts | 26° |
| 2026-05-08 13:15 | 14.40481 | 120.35562 | 7835 ft | 280 kts | 25° |
| 2026-05-08 13:15 | 14.42281 | 120.36385 | 7275 ft | 286 kts | 28° |
| 2026-05-08 13:15 | 14.43930 | 120.37474 | 6954 ft | 278 kts | 44° |
| 2026-05-08 13:16 | 14.45125 | 120.38993 | 6632 ft | 270 kts | 62° |
| 2026-05-08 13:16 | 14.45640 | 120.40822 | 6207 ft | 267 kts | 87° |
| 2026-05-08 13:16 | 14.45537 | 120.42729 | 5836 ft | 265 kts | 96° |
| 2026-05-08 13:16 | 14.45300 | 120.44602 | 5450 ft | 263 kts | 97° |
| 2026-05-08 13:17 | 14.45039 | 120.46462 | 5110 ft | 260 kts | 97° |
| 2026-05-08 13:17 | 14.44781 | 120.48301 | 4999 ft | 259 kts | 97° |
| 2026-05-08 13:17 | 14.44521 | 120.50132 | 5002 ft | 260 kts | 97° |
| 2026-05-08 13:17 | 14.44261 | 120.51989 | 4998 ft | 260 kts | 97° |
| 2026-05-08 13:18 | 14.44014 | 120.53838 | 4999 ft | 260 kts | 97° |
| 2026-05-08 13:18 | 14.43761 | 120.55682 | 4999 ft | 259 kts | 97° |
| 2026-05-08 13:18 | 14.43510 | 120.57523 | 4999 ft | 260 kts | 97° |
| 2026-05-08 13:18 | 14.43259 | 120.59375 | 5000 ft | 260 kts | 97° |
| 2026-05-08 13:19 | 14.43007 | 120.61218 | 4996 ft | 259 kts | 97° |
| 2026-05-08 13:19 | 14.42755 | 120.63061 | 4989 ft | 260 kts | 97° |
| 2026-05-08 13:19 | 14.42501 | 120.64909 | 4994 ft | 261 kts | 97° |
| 2026-05-08 13:19 | 14.42243 | 120.66758 | 4998 ft | 261 kts | 97° |
| 2026-05-08 13:20 | 14.41985 | 120.68612 | 4999 ft | 261 kts | 97° |
| 2026-05-08 13:20 | 14.41728 | 120.70462 | 4997 ft | 261 kts | 97° |
| 2026-05-08 13:20 | 14.41474 | 120.72311 | 4995 ft | 261 kts | 97° |
| 2026-05-08 13:20 | 14.41223 | 120.74143 | 4742 ft | 261 kts | 97° |
| 2026-05-08 13:21 | 14.40968 | 120.75989 | 4361 ft | 259 kts | 97° |
| 2026-05-08 13:21 | 14.40718 | 120.77798 | 4088 ft | 252 kts | 97° |
| 2026-05-08 13:21 | 14.40472 | 120.79545 | 3930 ft | 238 kts | 97° |
| 2026-05-08 13:21 | 14.40311 | 120.81165 | 3661 ft | 227 kts | 90° |
| 2026-05-08 13:22 | 14.40327 | 120.82762 | 3383 ft | 219 kts | 88° |
| 2026-05-08 13:22 | 14.40385 | 120.84311 | 3102 ft | 212 kts | 86° |
| 2026-05-08 13:22 | 14.40507 | 120.85803 | 2937 ft | 206 kts | 84° |
| 2026-05-08 13:22 | 14.40651 | 120.87266 | 2914 ft | 205 kts | 82° |
| 2026-05-08 13:23 | 14.41185 | 120.88614 | 2513 ft | 208 kts | 50° |
| 2026-05-08 13:23 | 14.42358 | 120.89500 | 2322 ft | 211 kts | 31° |
| 2026-05-08 13:23 | 14.43636 | 120.90128 | 2411 ft | 195 kts | 30° |
| 2026-05-08 13:23 | 14.44637 | 120.91013 | 2567 ft | 192 kts | 50° |
| 2026-05-08 13:24 | 14.45457 | 120.92095 | 2436 ft | 190 kts | 57° |
| 2026-05-08 13:24 | 14.46127 | 120.93266 | 2084 ft | 190 kts | 63° |
| 2026-05-08 13:24 | 14.46741 | 120.94484 | 1658 ft | 193 kts | 63° |
| 2026-05-08 13:24 | 14.47402 | 120.95697 | 1226 ft | 192 kts | 60° |
| 2026-05-08 13:25 | 14.48061 | 120.96843 | 943 ft | 179 kts | 61° |
| 2026-05-08 13:25 | 14.48631 | 120.97913 | 707 ft | 162 kts | 62° |
| 2026-05-08 13:25 | 14.49172 | 120.98881 | 447 ft | 149 kts | 62° |
| 2026-05-08 13:25 | 14.49659 | 120.99763 | 237 ft | 134 kts | 62° |
| 2026-05-08 13:26 | 14.50112 | 121.00585 | 103 ft | 129 kts | 62° |
| 2026-05-08 13:26 | 14.50538 | 121.01362 | 65 ft | 109 kts | 60° |
| 2026-05-08 13:26 | 14.50826 | 121.01876 | 63 ft | 62 kts | 61° |
| 2026-05-08 13:26 | 14.51013 | 121.02202 | 72 ft | 30 kts | 47° |
| 2026-05-08 13:27 | 14.51123 | 121.02293 | 71 ft | 17 kts | 34° |
| 2026-05-08 13:27 | 14.51165 | 121.02304 | 72 ft | 4 kts | 339° |
| 2026-05-08 13:27 | 14.51185 | 121.02287 | 71 ft | 4 kts | 301° |
| 2026-05-08 13:27 | 14.51187 | 121.02258 | 69 ft | 4 kts | 262° |
| 2026-05-08 13:28 | 14.51179 | 121.02234 | 66 ft | 3 kts | 246° |
| 2026-05-08 13:28 | 14.51170 | 121.02218 | 68 ft | 2 kts | 239° |
| 2026-05-08 13:28 | 14.51162 | 121.02205 | 67 ft | 2 kts | 239° |
| 2026-05-08 13:28 | 14.51154 | 121.02190 | 68 ft | 3 kts | 239° |
| 2026-05-08 13:29 | 14.51144 | 121.02172 | 69 ft | 3 kts | 239° |
| 2026-05-08 13:29 | 14.51132 | 121.02151 | 68 ft | 7 kts | 239° |
| 2026-05-08 13:29 | 14.51086 | 121.02070 | 69 ft | 15 kts | 240° |
| 2026-05-08 13:29 | 14.51059 | 121.02008 | 71 ft | 3 kts | 283° |
| 2026-05-08 13:30 | 14.51090 | 121.01967 | 68 ft | 9 kts | 316° |
| 2026-05-08 13:30 | 14.51135 | 121.01921 | 72 ft | 9 kts | 314° |
| 2026-05-08 13:30 | 14.51187 | 121.01867 | 67 ft | 18 kts | 315° |
| 2026-05-08 13:30 | 14.51313 | 121.01737 | 63 ft | 26 kts | 315° |
| 2026-05-08 13:31 | 14.51435 | 121.01614 | 69 ft | 19 kts | 327° |
| 2026-05-08 13:31 | 14.51471 | 121.01621 | 65 ft | 8 kts | 39° |
| 2026-05-08 13:31 | 14.51519 | 121.01668 | 67 ft | 10 kts | 44° |
| 2026-05-08 13:31 | 14.51571 | 121.01721 | 63 ft | 11 kts | 44° |
| 2026-05-08 13:32 | 14.51630 | 121.01777 | 68 ft | 11 kts | 31° |
| 2026-05-08 13:32 | 14.51683 | 121.01770 | 70 ft | 4 kts | 298° |
| 2026-05-08 13:32 | 14.51679 | 121.01749 | 69 ft | 3 kts | 231° |
| 2026-05-08 13:32 | 14.51664 | 121.01736 | 70 ft | 3 kts | 225° |
| 2026-05-08 13:33 | 14.51654 | 121.01725 | 64 ft | 1 kts | 224° |
| 2026-05-08 13:33 | 14.51650 | 121.01721 | 66 ft | 0 kts | 225° |